createdAt,value
2022-12-12T00:04:02.719Z,22.10
2022-12-12T00:09:04.727Z,20.45
2022-12-12T00:14:06.206Z,22.17
2022-12-12T00:19:07.627Z,21.60
2022-12-12T00:24:09.181Z,21.17
2022-12-12T00:29:11.207Z,20.25
2022-12-12T00:34:13.392Z,21.00
2022-12-12T00:39:18.351Z,20.20
2022-12-12T00:44:19.936Z,21.98
2022-12-12T00:49:21.328Z,21.08
2022-12-12T00:54:23.594Z,23.60
2022-12-12T00:59:25.013Z,21.08
2022-12-12T01:04:26.382Z,21.23
2022-12-12T01:09:27.774Z,19.42
2022-12-12T01:14:29.164Z,21.63
2022-12-12T01:19:30.513Z,20.38
2022-12-12T01:24:32.015Z,20.30
2022-12-12T01:29:34.764Z,21.67
2022-12-12T01:34:36.162Z,20.83
2022-12-12T01:39:37.519Z,19.65
2022-12-12T01:44:45.878Z,20.80
2022-12-12T01:49:59.438Z,21.45
2022-12-12T01:55:05.256Z,19.70
2022-12-12T02:00:08.448Z,19.58
2022-12-12T02:05:23.047Z,20.85
2022-12-12T02:10:24.510Z,20.10
2022-12-12T02:15:30.328Z,19.35
2022-12-12T02:20:45.902Z,19.90
2022-12-12T02:26:21.053Z,20.33
2022-12-12T02:31:27.320Z,22.65
2022-12-12T02:37:00.646Z,20.30
2022-12-12T02:42:08.484Z,21.10
2022-12-12T02:52:17.777Z,20.77
2022-12-12T02:57:24.404Z,22.42
2022-12-12T03:02:50.152Z,23.48
2022-12-12T03:08:11.396Z,20.90
2022-12-12T03:13:27.259Z,18.48
2022-12-12T03:18:40.531Z,20.92
2022-12-12T03:23:46.995Z,21.60
2022-12-12T03:28:55.960Z,19.48
2022-12-12T03:34:02.291Z,22.02
2022-12-12T03:39:13.388Z,21.88
2022-12-12T03:44:20.535Z,22.38
2022-12-12T03:49:34.441Z,22.55
2022-12-12T03:54:48.718Z,22.60
2022-12-12T03:59:58.435Z,21.98
2022-12-12T04:05:20.589Z,23.95
2022-12-12T04:10:43.812Z,21.98
2022-12-12T04:15:51.977Z,23.50
2022-12-12T04:21:18.246Z,23.90
2022-12-12T04:26:41.633Z,21.88
2022-12-12T04:31:58.663Z,22.02
2022-12-12T04:37:01.466Z,21.25
2022-12-12T04:42:06.687Z,22.60
2022-12-12T04:47:09.959Z,22.02
2022-12-12T04:52:15.205Z,24.23
2022-12-12T04:57:25.909Z,23.35
2022-12-12T05:02:40.326Z,24.85
2022-12-12T05:07:45.703Z,23.55
2022-12-12T05:12:49.982Z,23.65
2022-12-12T05:18:00.732Z,24.02
2022-12-12T05:23:02.138Z,23.95
2022-12-12T05:28:03.610Z,25.45
2022-12-12T05:33:05.130Z,26.27
2022-12-12T05:38:06.536Z,25.25
2022-12-12T05:43:07.893Z,25.20
2022-12-12T05:48:09.236Z,26.02
2022-12-12T05:53:11.262Z,25.40
2022-12-12T05:58:12.601Z,25.20
2022-12-12T06:03:14.397Z,23.83
2022-12-12T06:08:16.241Z,26.83
2022-12-12T06:13:19.418Z,27.00
2022-12-12T06:18:20.841Z,25.02
2022-12-12T06:23:22.176Z,24.95
2022-12-12T06:28:23.574Z,27.13
2022-12-12T06:33:25.555Z,24.70
2022-12-12T06:38:27.095Z,26.90
2022-12-12T06:43:28.458Z,25.70
2022-12-12T06:48:31.611Z,27.98
2022-12-12T06:53:33.574Z,25.92
2022-12-12T06:58:35.615Z,26.58
2022-12-12T07:03:37.028Z,25.40
2022-12-12T07:08:38.888Z,24.58
2022-12-12T07:13:40.885Z,24.58
2022-12-12T07:18:42.308Z,23.92
2022-12-12T07:23:44.138Z,24.95
2022-12-12T07:28:45.812Z,28.00
2022-12-12T07:33:47.585Z,27.88
2022-12-12T07:38:49.057Z,28.42
2022-12-12T07:43:52.176Z,25.95
2022-12-12T07:48:53.871Z,28.50
2022-12-12T07:53:55.336Z,26.40
2022-12-12T07:58:58.014Z,28.52
2022-12-12T08:03:59.912Z,27.13
2022-12-12T08:09:01.824Z,26.50
2022-12-12T08:14:11.200Z,24.60
2022-12-12T08:19:14.483Z,24.63
2022-12-12T08:24:19.140Z,25.80
2022-12-12T08:29:20.959Z,26.30
2022-12-12T08:34:22.443Z,26.90
2022-12-12T08:39:23.891Z,25.33
2022-12-12T08:44:25.454Z,25.65
2022-12-12T08:49:26.985Z,25.25
2022-12-12T08:54:28.485Z,27.73
2022-12-12T08:59:30.232Z,26.45
2022-12-12T09:04:33.672Z,26.67
2022-12-12T09:09:35.233Z,25.17
2022-12-12T09:14:36.844Z,26.85
2022-12-12T09:19:38.398Z,24.85
2022-12-12T09:24:39.893Z,24.70
2022-12-12T09:29:41.475Z,24.45
2022-12-12T09:34:43.209Z,24.10
2022-12-12T09:39:44.825Z,26.85
2022-12-12T09:44:47.422Z,24.60
2022-12-12T09:49:55.635Z,25.48
2022-12-12T09:54:59.997Z,25.60
2022-12-12T10:00:12.065Z,24.67
2022-12-12T10:05:41.226Z,23.30
2022-12-12T10:10:46.290Z,24.25
2022-12-12T10:15:52.238Z,23.65
2022-12-12T10:20:57.970Z,26.10
2022-12-12T10:26:05.287Z,24.27
2022-12-12T10:31:09.433Z,23.80
2022-12-12T10:36:27.917Z,24.15
2022-12-12T10:42:15.375Z,23.05
2022-12-12T10:47:17.065Z,24.42
2022-12-12T10:52:22.012Z,26.08
2022-12-12T10:57:26.189Z,25.60
2022-12-12T11:02:52.328Z,27.38
2022-12-12T11:08:19.539Z,24.83
2022-12-12T11:13:29.379Z,25.45
2022-12-12T11:18:31.006Z,25.13
2022-12-12T11:23:34.116Z,24.00
2022-12-12T11:28:37.958Z,23.10
2022-12-12T11:33:49.650Z,26.75
2022-12-12T11:38:54.894Z,22.63
2022-12-12T11:44:00.278Z,25.13
2022-12-12T11:49:04.837Z,24.23
2022-12-12T11:54:44.977Z,22.25
2022-12-12T12:00:09.857Z,20.48
2022-12-12T12:05:25.466Z,21.58
2022-12-12T12:11:02.287Z,20.45
2022-12-12T12:16:46.820Z,22.10
2022-12-12T12:22:16.780Z,20.85
2022-12-12T12:27:52.138Z,24.23
2022-12-12T12:33:15.140Z,24.50
2022-12-12T12:38:31.763Z,24.23
2022-12-12T12:43:57.814Z,24.20
2022-12-12T12:49:10.617Z,22.60
2022-12-12T12:54:26.007Z,21.92
2022-12-12T12:59:34.175Z,21.50
2022-12-12T13:04:53.894Z,22.08
2022-12-12T13:10:04.661Z,21.58
2022-12-12T13:15:44.849Z,21.38
2022-12-12T13:21:05.417Z,20.75
2022-12-12T13:26:13.249Z,23.08
2022-12-12T13:31:24.382Z,22.83
2022-12-12T13:36:31.587Z,21.90
2022-12-12T13:41:56.370Z,21.73
2022-12-12T13:46:59.094Z,20.20
2022-12-12T13:52:40.558Z,19.50
2022-12-12T13:57:57.520Z,17.75
2022-12-12T14:03:05.162Z,19.63
2022-12-12T14:08:13.684Z,22.00
2022-12-12T14:13:24.152Z,22.42
2022-12-12T14:18:33.672Z,23.05
2022-12-12T14:23:40.131Z,22.13
2022-12-12T14:28:43.338Z,21.55
2022-12-12T14:34:05.609Z,19.98
2022-12-12T14:39:24.918Z,19.88
2022-12-12T14:44:37.938Z,21.25
2022-12-12T14:49:40.496Z,22.85
2022-12-12T14:54:42.027Z,21.63
2022-12-12T14:59:43.520Z,21.08
2022-12-12T15:04:49.478Z,21.92
2022-12-12T15:09:51.074Z,20.13
2022-12-12T15:21:37.760Z,24.90
2022-12-12T15:26:39.273Z,24.15
2022-12-12T15:31:44.325Z,22.52
2022-12-12T15:36:45.930Z,20.90
2022-12-12T15:41:47.975Z,21.33
2022-12-12T15:46:50.485Z,23.38
2022-12-12T15:51:52.227Z,22.98
2022-12-12T15:56:56.515Z,24.25
2022-12-12T16:02:13.678Z,20.63
2022-12-12T16:07:21.620Z,23.20
2022-12-12T16:12:57.022Z,21.65
2022-12-12T16:18:04.607Z,22.73
2022-12-12T16:23:31.810Z,22.88
2022-12-12T16:28:33.498Z,22.73
2022-12-12T16:33:38.724Z,22.30
2022-12-12T16:38:42.065Z,21.73
2022-12-12T16:43:44.939Z,23.10
2022-12-12T16:48:46.675Z,22.00
2022-12-12T16:53:48.099Z,20.77
2022-12-12T16:58:50.745Z,21.88
2022-12-12T17:03:52.471Z,20.25
2022-12-12T17:08:54.136Z,21.92
2022-12-12T17:13:55.707Z,20.88
2022-12-12T17:18:58.429Z,18.92
2022-12-12T17:23:59.964Z,19.45
2022-12-12T17:29:02.438Z,20.38
2022-12-12T17:34:05.845Z,19.13
2022-12-12T17:39:07.646Z,19.88
2022-12-12T17:44:10.022Z,18.33
2022-12-12T17:49:11.652Z,19.58
2022-12-12T17:54:13.199Z,22.92
2022-12-12T17:59:14.895Z,22.65
2022-12-12T18:04:16.456Z,22.30
2022-12-12T18:09:18.551Z,23.45
2022-12-12T18:14:20.302Z,22.55
2022-12-12T18:19:24.132Z,22.88
2022-12-12T18:24:29.304Z,22.80
2022-12-12T18:29:32.153Z,19.83
2022-12-12T18:34:34.245Z,19.42
2022-12-12T18:39:35.999Z,19.70
2022-12-12T18:44:37.943Z,19.13
2022-12-12T18:49:39.624Z,18.38
2022-12-12T18:54:41.283Z,19.08
2022-12-12T18:59:45.392Z,19.48
2022-12-12T19:04:48.541Z,20.20
2022-12-12T19:09:50.132Z,21.08
2022-12-12T19:15:15.709Z,19.65
2022-12-12T19:20:13.475Z,20.60
2022-12-12T19:25:17.258Z,21.38
2022-12-12T19:30:18.971Z,18.13
2022-12-12T19:35:21.448Z,17.42
2022-12-12T19:40:22.972Z,20.42
2022-12-12T19:45:24.552Z,23.27
2022-12-12T19:50:26.297Z,22.33
2022-12-12T19:55:27.825Z,20.63
2022-12-12T20:00:29.309Z,18.23
2022-12-12T20:05:30.858Z,19.30
2022-12-12T20:10:36.382Z,17.83
2022-12-12T20:15:39.238Z,19.52
2022-12-12T20:20:40.819Z,21.50
2022-12-12T20:25:42.812Z,18.38
2022-12-12T20:30:44.371Z,18.08
2022-12-12T20:35:45.996Z,17.77
2022-12-12T20:40:49.114Z,19.73
2022-12-12T20:45:51.106Z,18.77
2022-12-12T20:50:54.789Z,18.83
2022-12-12T20:55:59.030Z,19.85
2022-12-12T21:01:03.433Z,18.98
2022-12-12T21:06:36.465Z,19.77
2022-12-12T21:11:38.776Z,19.05
2022-12-12T21:16:40.959Z,18.27
2022-12-12T21:21:43.492Z,18.63
2022-12-12T21:26:45.835Z,17.50
2022-12-12T21:31:51.628Z,19.20
2022-12-12T21:37:22.635Z,18.55
2022-12-12T21:42:24.161Z,18.27
2022-12-12T21:47:25.669Z,17.40
2022-12-12T21:52:27.161Z,16.23
2022-12-12T21:57:28.636Z,17.27
2022-12-12T22:02:30.349Z,18.45
2022-12-12T22:07:34.744Z,18.35
2022-12-12T22:12:36.209Z,16.05
2022-12-12T22:17:37.762Z,17.77
2022-12-12T22:22:39.393Z,16.58
2022-12-12T22:27:40.874Z,17.98
2022-12-12T22:32:43.327Z,17.52
2022-12-12T22:37:45.120Z,17.50
2022-12-12T22:42:46.559Z,17.38
2022-12-12T22:47:48.038Z,18.60
2022-12-12T22:52:49.484Z,17.23
2022-12-12T22:57:54.054Z,17.42
2022-12-12T23:02:57.019Z,15.70
2022-12-12T23:07:59.506Z,16.05
2022-12-12T23:13:01.178Z,15.07
2022-12-12T23:18:02.583Z,17.13
2022-12-12T23:23:03.922Z,17.25
2022-12-12T23:28:07.129Z,17.00
2022-12-12T23:33:12.081Z,16.40
2022-12-12T23:38:13.743Z,16.45
2022-12-12T23:43:15.157Z,15.75
2022-12-12T23:48:16.506Z,17.67
2022-12-12T23:53:17.871Z,18.17
2022-12-12T23:58:19.533Z,19.17
